Time;durP1;ratioP1;P1;durP2;ratioP2;P2;SDS_P1;SDS_P2;PMS_P1;PMS_P2;Temp;Humidity;BMP_temperature;BMP_pressure;BME280_temperature;BME280_humidity;BME280_pressure;Samples;Min_cycle;Max_cycle;Signal;HPM_P1;HPM_P2
2021/11/17 02:25:55;;;;;;;;;;;6.00;99.90;;;;;;5038986;28;19916;-85
2021/11/17 02:28:31;;;;;;;;;;;6.00;99.90;;;;;;5038456;28;19921;-85
2021/11/17 02:31:04;;;;;;;;;;;6.00;99.90;;;;;;5037137;28;19917;-86
2021/11/17 02:33:38;;;;;;;;;;;6.00;99.90;;;;;;5037562;28;19914;-86
2021/11/17 02:36:11;;;;;;;;;;;6.00;99.90;;;;;;5034593;28;19933;-86
2021/11/17 02:38:44;;;;;;;;;;;5.90;99.90;;;;;;5022257;28;19925;-86
2021/11/17 02:41:21;;;;;;;;;;;6.10;99.90;;;;;;5021885;28;19929;-86
2021/11/17 02:43:58;;;;;;;;;;;6.10;99.90;;;;;;5027521;28;19933;-85
2021/11/17 02:46:30;;;;;;;;;;;6.10;99.90;;;;;;5026513;28;20443;-86
2021/11/17 02:49:04;;;;;;;;;;;6.10;99.90;;;;;;5018787;28;19925;-86
2021/11/17 02:51:36;;;;;;;;;;;6.20;99.90;;;;;;5022094;28;19952;-85
2021/11/17 02:54:16;;;;;;;;;;;6.10;99.90;;;;;;5025548;28;19991;-86
2021/11/17 02:56:50;;;;;;;;;;;6.00;99.90;;;;;;5020821;28;19929;-85
2021/11/17 02:59:32;;;;;;;;;;;6.10;99.90;;;;;;5032848;28;19913;-85
2021/11/17 03:02:08;;;;;;;;;;;6.00;99.90;;;;;;5032321;28;19954;-86
2021/11/17 03:04:42;;;;;;;;;;;6.00;99.90;;;;;;5034182;28;19926;-85
2021/11/17 03:07:18;;;;;;;;;;;5.90;99.90;;;;;;5034045;28;20054;-85
2021/11/17 03:09:51;;;;;;;;;;;6.00;99.90;;;;;;5031810;28;19926;-86
2021/11/17 03:12:29;;;;;;;;;;;5.80;99.90;;;;;;5037957;28;19925;-85
2021/11/17 03:15:02;;;;;;;;;;;5.80;99.90;;;;;;5038100;28;19940;-85
2021/11/17 03:17:43;;;;;;;;;;;5.80;99.90;;;;;;5035504;28;19953;-85
2021/11/17 03:20:24;;;;;;;;;;;5.70;99.90;;;;;;5032208;28;19948;-87
2021/11/17 03:22:58;;;;;;;;;;;5.90;99.90;;;;;;5022072;28;19979;-87
2021/11/17 03:25:34;;;;;;;;;;;5.50;99.90;;;;;;5021746;28;19988;-86
2021/11/17 03:28:05;;;;;;;;;;;5.60;99.90;;;;;;5021247;28;19945;-87
2021/11/17 03:30:39;;;;;;;;;;;5.50;99.90;;;;;;5022075;28;19963;-86
2021/11/17 03:33:16;;;;;;;;;;;5.60;99.90;;;;;;5022822;28;19926;-86
2021/11/17 03:35:51;;;;;;;;;;;5.50;99.90;;;;;;5024070;28;19925;-86
2021/11/17 03:38:25;;;;;;;;;;;5.50;99.90;;;;;;5022124;28;20024;-86
2021/11/17 03:41:01;;;;;;;;;;;5.60;99.90;;;;;;5035394;28;19913;-85
2021/11/17 03:43:49;;;;;;;;;;;5.60;99.90;;;;;;5040800;28;19953;-85
2021/11/17 03:46:26;;;;;;;;;;;5.60;99.90;;;;;;5022034;28;19925;-86
2021/11/17 03:49:00;;;;;;;;;;;5.50;99.90;;;;;;5022861;28;19991;-86
2021/11/17 03:51:33;;;;;;;;;;;5.50;99.90;;;;;;5022704;28;19932;-88
2021/11/17 03:54:07;;;;;;;;;;;5.50;99.90;;;;;;5031659;28;19909;-87
2021/11/17 03:56:46;;;;;;;;;;;5.50;99.90;;;;;;5040368;28;19976;-85
2021/11/17 03:59:22;;;;;;;;;;;5.50;99.90;;;;;;5040530;28;19952;-84
2021/11/17 04:01:56;;;;;;;;;;;5.60;99.90;;;;;;5041055;28;19963;-85
2021/11/17 04:04:37;;;;;;;;;;;5.70;99.90;;;;;;5037595;28;19925;-86
2021/11/17 04:07:11;;;;;;;;;;;5.60;99.90;;;;;;5033057;28;19925;-86
2021/11/17 04:09:44;;;;;;;;;;;5.70;99.90;;;;;;5030255;28;19961;-87
2021/11/17 04:12:16;;;;;;;;;;;5.70;99.90;;;;;;5026335;28;19932;-87
2021/11/17 04:14:50;;;;;;;;;;;5.80;99.90;;;;;;5022864;28;19926;-86
2021/11/17 04:17:24;;;;;;;;;;;5.80;99.90;;;;;;5095303;22;19977;-81
2021/11/17 04:19:56;;;;;;;;;;;5.60;99.90;;;;;;5065050;28;20277;-83
2021/11/17 04:22:28;;;;;;;;;;;5.80;99.90;;;;;;5076375;28;19920;-82
2021/11/17 04:25:01;;;;;;;;;;;5.80;99.90;;;;;;5080852;28;19924;-78
2021/11/17 04:27:34;;;;;;;;;;;5.70;99.90;;;;;;5078736;28;19912;-81
2021/11/17 04:30:20;;;;;;;;;;;5.70;99.90;;;;;;5077988;28;19951;-81
2021/11/17 04:32:54;;;;;;;;;;;5.60;99.90;;;;;;5079268;28;19925;-81
2021/11/17 04:35:30;;;;;;;;;;;5.50;99.90;;;;;;5076670;28;19912;-80
2021/11/17 04:38:08;;;;;;;;;;;5.50;99.90;;;;;;5075537;28;19924;-82
2021/11/17 04:40:53;;;;;;;;;;;5.50;99.90;;;;;;5069051;28;19947;-81
2021/11/17 04:43:29;;;;;;;;;;;5.40;99.90;;;;;;5062807;28;19925;-81
2021/11/17 04:46:02;;;;;;;;;;;5.50;99.90;;;;;;5061817;28;20415;-81
2021/11/17 04:48:42;;;;;;;;;;;5.50;99.90;;;;;;5060392;28;19967;-81
2021/11/17 04:51:18;;;;;;;;;;;5.50;99.90;;;;;;5061437;28;19951;-82
2021/11/17 04:53:51;;;;;;;;;;;5.50;99.90;;;;;;5062755;28;19925;-79
2021/11/17 04:56:26;;;;;;;;;;;5.40;99.90;;;;;;5071189;28;19936;-79
2021/11/17 04:58:59;;;;;;;;;;;5.40;99.90;;;;;;5065569;28;19925;-82
2021/11/17 05:01:44;;;;;;;;;;;5.40;99.90;;;;;;5067928;28;20303;-81
2021/11/17 05:04:18;;;;;;;;;;;5.30;99.90;;;;;;5062913;28;19931;-80
2021/11/17 05:06:53;;;;;;;;;;;5.30;99.90;;;;;;5062471;28;19978;-81
2021/11/17 05:09:25;;;;;;;;;;;5.30;99.90;;;;;;5061689;28;19925;-81
2021/11/17 05:11:59;;;;;;;;;;;5.50;99.90;;;;;;5060818;28;19925;-82
2021/11/17 05:14:28;;;;;;;;;;;4.60;99.90;;;;;;5060137;28;20391;-82
2021/11/17 05:17:02;;;;;;;;;;;5.50;99.90;;;;;;5061719;28;19925;-81
2021/11/17 05:19:33;;;;;;;;;;;5.50;99.90;;;;;;5060613;28;20347;-81
2021/11/17 05:22:08;;;;;;;;;;;5.50;99.90;;;;;;5064032;28;19956;-82
2021/11/17 05:24:41;;;;;;;;;;;5.50;99.90;;;;;;5061888;28;19978;-84
2021/11/17 05:27:17;;;;;;;;;;;5.50;99.90;;;;;;5060415;28;20310;-83
2021/11/17 05:29:52;;;;;;;;;;;5.50;99.90;;;;;;5062825;28;19955;-83
2021/11/17 05:32:31;;;;;;;;;;;5.50;99.90;;;;;;5061913;28;19926;-82
2021/11/17 05:35:08;;;;;;;;;;;5.60;99.90;;;;;;5060051;28;19932;-82
2021/11/17 05:37:40;;;;;;;;;;;5.50;99.90;;;;;;5059667;28;20399;-82
2021/11/17 05:40:16;;;;;;;;;;;5.50;99.90;;;;;;5058920;28;19975;-83
2021/11/17 05:42:48;;;;;;;;;;;5.50;99.90;;;;;;5059103;28;19989;-83
2021/11/17 05:45:28;;;;;;;;;;;5.50;99.90;;;;;;5058984;28;19924;-80
2021/11/17 05:48:01;;;;;;;;;;;5.40;99.90;;;;;;5059340;28;20015;-82
2021/11/17 05:50:36;;;;;;;;;;;5.50;99.90;;;;;;5061838;28;19947;-83
2021/11/17 05:53:09;;;;;;;;;;;5.30;99.90;;;;;;5061143;28;20387;-83
2021/11/17 05:55:44;;;;;;;;;;;5.50;99.90;;;;;;5071730;28;19924;-82
2021/11/17 05:58:18;;;;;;;;;;;5.50;99.90;;;;;;5076821;28;19924;-81
2021/11/17 06:00:54;;;;;;;;;;;5.40;99.90;;;;;;5071310;28;19929;-79
2021/11/17 06:03:36;;;;;;;;;;;5.40;99.90;;;;;;5063699;28;19960;-81
2021/11/17 06:06:03;;;;;;;;;;;5.40;99.90;;;;;;5061598;28;19932;-82
2021/11/17 06:08:29;;;;;;;;;;;5.40;99.90;;;;;;5058378;28;20024;-81
2021/11/17 06:10:59;;;;;;;;;;;5.40;99.90;;;;;;5058306;28;19924;-82
2021/11/17 06:13:26;;;;;;;;;;;5.40;99.90;;;;;;5060125;28;19964;-80
2021/11/17 06:15:53;;;;;;;;;;;5.40;99.90;;;;;;5057398;28;20350;-81
2021/11/17 06:18:21;;;;;;;;;;;5.40;99.90;;;;;;5058539;28;20390;-83
2021/11/17 06:20:48;;;;;;;;;;;5.50;99.90;;;;;;5063298;28;19963;-80
2021/11/17 06:23:20;;;;;;;;;;;5.50;99.90;;;;;;5060141;28;19936;-83
2021/11/17 06:25:47;;;;;;;;;;;5.50;99.90;;;;;;5062715;28;19925;-83
2021/11/17 06:28:19;;;;;;;;;;;5.60;99.90;;;;;;5061789;28;19947;-81
2021/11/17 06:30:45;;;;;;;;;;;5.50;99.90;;;;;;5060923;28;19967;-82
2021/11/17 06:33:12;;;;;;;;;;;5.50;99.90;;;;;;5068992;28;19961;-84
2021/11/17 06:35:40;;;;;;;;;;;5.50;99.90;;;;;;5069396;28;19924;-82
2021/11/17 06:38:07;;;;;;;;;;;5.50;99.90;;;;;;5071931;28;19975;-82
2021/11/17 06:40:34;;;;;;;;;;;5.50;99.90;;;;;;5072210;28;19971;-79
2021/11/17 06:43:01;;;;;;;;;;;5.50;99.90;;;;;;5070659;28;19948;-82
2021/11/17 06:45:36;;;;;;;;;;;5.40;99.90;;;;;;5072589;28;19925;-81
2021/11/17 06:48:03;;;;;;;;;;;5.40;99.90;;;;;;5069433;28;19935;-82
2021/11/17 06:50:30;;;;;;;;;;;5.40;99.90;;;;;;5066054;28;19929;-82
2021/11/17 06:52:56;;;;;;;;;;;5.20;99.90;;;;;;5068455;28;19925;-82
2021/11/17 06:55:23;;;;;;;;;;;5.30;99.90;;;;;;5063745;28;20391;-82
2021/11/17 06:57:49;;;;;;;;;;;5.30;99.90;;;;;;5073251;28;19925;-80
2021/11/17 07:00:17;;;;;;;;;;;5.40;99.90;;;;;;5078929;28;19925;-81
2021/11/17 07:02:45;;;;;;;;;;;5.40;99.90;;;;;;5078970;28;19925;-82
2021/11/17 07:05:12;;;;;;;;;;;5.50;99.90;;;;;;5078448;28;19925;-78
2021/11/17 07:07:39;;;;;;;;;;;5.50;99.90;;;;;;5066711;28;19964;-83
2021/11/17 07:10:06;;;;;;;;;;;5.50;99.90;;;;;;5069926;28;19951;-81
2021/11/17 07:12:34;;;;;;;;;;;5.50;99.90;;;;;;5069525;28;19975;-82
2021/11/17 07:15:02;;;;;;;;;;;5.50;99.90;;;;;;5074143;28;19947;-81
2021/11/17 07:17:29;;;;;;;;;;;5.50;99.90;;;;;;5075964;28;19925;-83
2021/11/17 07:19:56;;;;;;;;;;;5.50;99.90;;;;;;5077803;28;20069;-81
2021/11/17 07:22:23;;;;;;;;;;;5.50;99.90;;;;;;5073977;28;19924;-80
2021/11/17 07:24:49;;;;;;;;;;;5.40;99.90;;;;;;5068593;28;19951;-82
2021/11/17 07:27:22;;;;;;;;;;;5.40;99.90;;;;;;5075744;28;19935;-82
2021/11/17 07:29:49;;;;;;;;;;;5.40;99.90;;;;;;5080506;28;19919;-79
2021/11/17 07:32:16;;;;;;;;;;;5.30;99.90;;;;;;5077776;28;19928;-80
2021/11/17 07:34:42;;;;;;;;;;;5.40;99.90;;;;;;5079012;28;19923;-79
2021/11/17 07:37:10;;;;;;;;;;;5.40;99.90;;;;;;5081287;28;19923;-80
2021/11/17 07:39:37;;;;;;;;;;;5.40;99.90;;;;;;5078524;28;19955;-81
2021/11/17 07:42:03;;;;;;;;;;;5.40;99.90;;;;;;5074302;28;19925;-80
2021/11/17 07:44:30;;;;;;;;;;;5.40;99.90;;;;;;5071761;28;20057;-81
2021/11/17 07:46:58;;;;;;;;;;;5.40;99.90;;;;;;5072048;28;19928;-79
2021/11/17 07:49:25;;;;;;;;;;;5.40;99.90;;;;;;5070409;28;19964;-80
2021/11/17 07:51:52;;;;;;;;;;;5.40;99.90;;;;;;5068073;28;19925;-81
2021/11/17 07:54:20;;;;;;;;;;;5.40;99.90;;;;;;5069855;28;20350;-80
2021/11/17 07:56:47;;;;;;;;;;;5.40;99.90;;;;;;5068345;28;20375;-81
2021/11/17 07:59:16;;;;;;;;;;;5.50;99.90;;;;;;5070652;28;19925;-82
2021/11/17 08:01:45;;;;;;;;;;;5.40;99.90;;;;;;5069402;28;19925;-80
2021/11/17 08:04:14;;;;;;;;;;;5.20;99.90;;;;;;5064967;28;20261;-81
2021/11/17 08:06:41;;;;;;;;;;;5.50;99.90;;;;;;5066249;28;19990;-83
2021/11/17 08:09:07;;;;;;;;;;;5.50;99.90;;;;;;5067076;28;19925;-81
2021/11/17 08:11:35;;;;;;;;;;;5.50;99.90;;;;;;5074233;28;19925;-82
2021/11/17 08:14:02;;;;;;;;;;;5.50;99.90;;;;;;5071205;28;19951;-82
2021/11/17 08:16:28;;;;;;;;;;;5.60;99.90;;;;;;5071975;28;19932;-81
2021/11/17 08:18:55;;;;;;;;;;;5.60;99.90;;;;;;5072972;28;19925;-80
2021/11/17 08:21:22;;;;;;;;;;;6.80;99.90;;;;;;5077180;28;19925;-80
2021/11/17 08:23:48;;;;;;;;;;;5.60;99.90;;;;;;5071092;28;19925;-82
2021/11/17 08:26:20;;;;;;;;;;;5.50;99.90;;;;;;5070157;28;20248;-82
2021/11/17 08:28:48;;;;;;;;;;;5.50;99.90;;;;;;5064991;28;19925;-83
2021/11/17 08:31:15;;;;;;;;;;;5.40;99.90;;;;;;5069821;28;19965;-83
2021/11/17 08:33:42;;;;;;;;;;;5.50;99.90;;;;;;5078289;28;19912;-79
2021/11/17 08:36:08;;;;;;;;;;;5.50;99.90;;;;;;5078047;28;19920;-80
2021/11/17 08:38:36;;;;;;;;;;;5.50;99.90;;;;;;5075916;28;19932;-82
2021/11/17 08:41:04;;;;;;;;;;;5.40;99.90;;;;;;5073999;28;19925;-82
2021/11/17 08:43:31;;;;;;;;;;;5.40;99.90;;;;;;5068696;28;19948;-82
2021/11/17 08:46:00;;;;;;;;;;;5.40;99.90;;;;;;5065695;28;19970;-82
2021/11/17 08:48:28;;;;;;;;;;;5.40;99.90;;;;;;5063569;28;20004;-82
2021/11/17 08:50:55;;;;;;;;;;;5.50;99.90;;;;;;5063211;28;19925;-83
2021/11/17 08:53:24;;;;;;;;;;;5.50;99.90;;;;;;5069227;28;19931;-83
2021/11/17 08:55:51;;;;;;;;;;;5.40;99.90;;;;;;5076229;28;19925;-82
2021/11/17 08:58:17;;;;;;;;;;;5.50;99.90;;;;;;5074071;28;19932;-82
2021/11/17 09:00:45;;;;;;;;;;;5.40;99.90;;;;;;5068490;28;20007;-82
2021/11/17 09:03:13;;;;;;;;;;;5.40;99.90;;;;;;5064424;28;19925;-82
2021/11/17 09:05:41;;;;;;;;;;;5.40;99.90;;;;;;5068995;28;20019;-80
2021/11/17 09:08:08;;;;;;;;;;;5.50;99.90;;;;;;5072880;28;19924;-80
2021/11/17 09:10:37;;;;;;;;;;;5.60;99.90;;;;;;5070078;28;19931;-82
2021/11/17 09:13:03;;;;;;;;;;;5.50;99.90;;;;;;5069709;28;19992;-83
2021/11/17 09:15:31;;;;;;;;;;;5.60;99.90;;;;;;5068354;28;19925;-83
2021/11/17 09:17:58;;;;;;;;;;;5.60;99.90;;;;;;5063400;28;19925;-82
2021/11/17 09:20:27;;;;;;;;;;;5.60;99.90;;;;;;5062361;28;20291;-82
2021/11/17 09:22:53;;;;;;;;;;;5.70;99.90;;;;;;5062617;28;19963;-82
2021/11/17 09:25:20;;;;;;;;;;;5.70;99.90;;;;;;5067047;28;19955;-83
2021/11/17 09:27:47;;;;;;;;;;;5.70;99.90;;;;;;5061047;28;19928;-79
2021/11/17 09:30:15;;;;;;;;;;;5.60;99.90;;;;;;5061394;28;19932;-83
2021/11/17 09:32:41;;;;;;;;;;;5.70;99.90;;;;;;5060707;28;19925;-81
2021/11/17 09:35:10;;;;;;;;;;;5.70;99.90;;;;;;5059691;28;19925;-81
2021/11/17 09:37:39;;;;;;;;;;;5.80;99.90;;;;;;5059656;28;20011;-81
2021/11/17 09:40:07;;;;;;;;;;;5.60;99.90;;;;;;5061479;28;19925;-81
2021/11/17 09:42:34;;;;;;;;;;;5.80;99.90;;;;;;5060551;28;19937;-83
2021/11/17 09:45:00;;;;;;;;;;;5.80;99.90;;;;;;5060853;28;19925;-81
2021/11/17 09:47:31;;;;;;;;;;;5.70;99.90;;;;;;5064195;28;19928;-81
2021/11/17 09:49:59;;;;;;;;;;;5.90;99.90;;;;;;5060644;28;19932;-81
2021/11/17 09:52:26;;;;;;;;;;;5.90;99.90;;;;;;5060908;28;19929;-83
2021/11/17 09:54:56;;;;;;;;;;;5.60;99.90;;;;;;5060688;28;19960;-83
2021/11/17 09:57:25;;;;;;;;;;;5.90;99.90;;;;;;5060023;28;19924;-81
2021/11/17 09:59:53;;;;;;;;;;;5.80;99.90;;;;;;5060986;28;19960;-81
2021/11/17 10:02:21;;;;;;;;;;;5.90;99.90;;;;;;5060814;28;20062;-81
2021/11/17 10:04:50;;;;;;;;;;;5.80;99.90;;;;;;5067368;28;19925;-79
2021/11/17 10:08:05;;;;;;;;;;;5.80;99.90;;;;;;5070107;28;19988;-80
2021/11/17 10:13:20;;;;;;;;;;;6.00;99.90;;;;;;5059814;28;19924;-81
2021/11/17 10:15:51;;;;;;;;;;;5.90;99.90;;;;;;5068360;22;20043;-81
2021/11/17 10:18:31;;;;;;;;;;;5.90;99.90;;;;;;5026822;28;19953;-83
2021/11/17 10:21:01;;;;;;;;;;;6.00;99.90;;;;;;5025396;28;19960;-82
2021/11/17 10:23:29;;;;;;;;;;;6.00;99.90;;;;;;5024509;28;19925;-82
2021/11/17 10:25:58;;;;;;;;;;;6.00;99.90;;;;;;5024653;28;19952;-82
2021/11/17 10:28:28;;;;;;;;;;;5.90;99.90;;;;;;5024997;28;19925;-83
2021/11/17 10:30:56;;;;;;;;;;;6.00;99.90;;;;;;5026627;28;19925;-82
2021/11/17 10:33:25;;;;;;;;;;;6.10;99.90;;;;;;5030483;28;19926;-82
2021/11/17 10:35:58;;;;;;;;;;;6.10;99.90;;;;;;5030021;28;21391;-83
2021/11/17 10:38:26;;;;;;;;;;;6.10;99.90;;;;;;5035326;28;19985;-82
2021/11/17 10:40:54;;;;;;;;;;;6.00;99.90;;;;;;5036312;28;20008;-81
2021/11/17 10:43:26;;;;;;;;;;;6.00;99.90;;;;;;5034808;28;19980;-81
2021/11/17 10:45:56;;;;;;;;;;;6.00;99.90;;;;;;5029883;28;19972;-81
2021/11/17 10:48:24;;;;;;;;;;;6.00;99.90;;;;;;5026013;28;19976;-82
2021/11/17 10:50:51;;;;;;;;;;;6.00;99.90;;;;;;5022223;28;20392;-83
2021/11/17 10:53:26;;;;;;;;;;;6.00;99.90;;;;;;5023602;28;19930;-83
2021/11/17 10:55:54;;;;;;;;;;;6.00;99.90;;;;;;5022097;28;19953;-83
2021/11/17 10:58:29;;;;;;;;;;;6.00;99.90;;;;;;5022459;28;19925;-83
2021/11/17 11:00:59;;;;;;;;;;;6.10;99.90;;;;;;5022592;28;19981;-82
2021/11/17 11:03:27;;;;;;;;;;;6.10;99.90;;;;;;5023624;28;19926;-82
2021/11/17 11:05:58;;;;;;;;;;;6.20;99.90;;;;;;5021222;28;19973;-82
2021/11/17 11:08:27;;;;;;;;;;;6.10;99.90;;;;;;5021445;28;19971;-82
2021/11/17 11:10:56;;;;;;;;;;;6.00;99.90;;;;;;5021383;28;19932;-81
2021/11/17 11:13:24;;;;;;;;;;;6.10;99.90;;;;;;5022678;28;19925;-82
2021/11/17 11:15:52;;;;;;;;;;;6.10;99.90;;;;;;5021959;28;19976;-83
2021/11/17 11:18:40;;;;;;;;;;;6.10;99.90;;;;;;5022968;28;19930;-83
2021/11/17 11:21:08;;;;;;;;;;;6.20;99.90;;;;;;5025024;28;19932;-82
2021/11/17 11:23:36;;;;;;;;;;;6.20;99.90;;;;;;5024336;28;19945;-84
2021/11/17 11:26:14;;;;;;;;;;;6.20;99.90;;;;;;5022952;28;19994;-82
2021/11/17 11:28:42;;;;;;;;;;;6.20;99.90;;;;;;5030374;28;19926;-81
2021/11/17 11:31:19;;;;;;;;;;;6.40;99.90;;;;;;5030064;28;19961;-81
2021/11/17 11:33:49;;;;;;;;;;;6.40;99.90;;;;;;5031723;28;19926;-81
2021/11/17 11:36:43;;;;;;;;;;;6.50;99.90;;;;;;5031678;28;19909;-81
2021/11/17 11:39:26;;;;;;;;;;;6.50;99.90;;;;;;5039195;28;19914;-80
2021/11/17 11:42:08;;;;;;;;;;;6.40;99.90;;;;;;5040708;28;19948;-81
2021/11/17 11:44:36;;;;;;;;;;;6.40;99.90;;;;;;5042077;28;19913;-79
2021/11/17 11:47:21;;;;;;;;;;;6.30;99.90;;;;;;5042077;28;19925;-80
2021/11/17 11:49:50;;;;;;;;;;;6.20;99.90;;;;;;5041603;28;19992;-81
2021/11/17 11:52:28;;;;;;;;;;;6.20;99.90;;;;;;5042012;28;19953;-80
2021/11/17 11:55:11;;;;;;;;;;;6.20;99.90;;;;;;5041885;28;19913;-81
2021/11/17 11:57:39;;;;;;;;;;;6.20;99.90;;;;;;5039652;28;19961;-82
2021/11/17 12:00:08;;;;;;;;;;;6.20;99.90;;;;;;5027019;28;19926;-82
2021/11/17 12:02:36;;;;;;;;;;;6.20;99.90;;;;;;5028290;28;19940;-82
2021/11/17 12:05:06;;;;;;;;;;;6.20;99.90;;;;;;5029530;28;19948;-81
2021/11/17 12:07:38;;;;;;;;;;;6.20;99.90;;;;;;5025049;28;19926;-82
2021/11/17 12:10:06;;;;;;;;;;;6.20;99.90;;;;;;5025925;28;19932;-82
2021/11/17 12:12:34;;;;;;;;;;;6.20;99.90;;;;;;5023566;28;20300;-81
2021/11/17 12:15:16;;;;;;;;;;;6.30;99.90;;;;;;5023512;28;19933;-82
2021/11/17 12:17:43;;;;;;;;;;;6.30;99.90;;;;;;5023257;28;19932;-82
2021/11/17 12:20:23;;;;;;;;;;;6.30;99.90;;;;;;5024338;28;20347;-82
2021/11/17 12:22:52;;;;;;;;;;;6.40;99.90;;;;;;5025016;28;20285;-82
2021/11/17 12:25:22;;;;;;;;;;;6.30;99.90;;;;;;5024493;28;20408;-82
2021/11/17 12:27:49;;;;;;;;;;;6.20;99.90;;;;;;5023456;28;19952;-83
2021/11/17 12:30:20;;;;;;;;;;;6.20;99.90;;;;;;5023800;28;19925;-82
2021/11/17 12:32:51;;;;;;;;;;;6.10;99.90;;;;;;5023153;28;19931;-82
2021/11/17 12:35:30;;;;;;;;;;;6.10;99.90;;;;;;5022281;28;19933;-81
2021/11/17 12:37:57;;;;;;;;;;;6.10;99.90;;;;;;5022447;28;19956;-81
2021/11/17 12:40:33;;;;;;;;;;;6.50;99.90;;;;;;5021833;28;19979;-83
2021/11/17 12:43:00;;;;;;;;;;;6.20;99.90;;;;;;5026017;28;19926;-81
2021/11/17 12:45:30;;;;;;;;;;;6.20;99.90;;;;;;5026215;28;19925;-82
2021/11/17 12:47:58;;;;;;;;;;;6.20;99.90;;;;;;5026277;28;19932;-81
2021/11/17 12:50:28;;;;;;;;;;;6.20;99.90;;;;;;5025353;28;20335;-83
2021/11/17 12:52:56;;;;;;;;;;;6.40;99.90;;;;;;5025518;28;19925;-83
2021/11/17 12:55:24;;;;;;;;;;;6.90;99.90;;;;;;5028445;28;20005;-81
2021/11/17 12:57:52;;;;;;;;;;;6.40;99.90;;;;;;5030080;28;19925;-82
2021/11/17 13:00:42;;;;;;;;;;;6.60;99.90;;;;;;5036688;28;19929;-82
2021/11/17 13:03:10;;;;;;;;;;;6.60;99.90;;;;;;5036791;28;19944;-82
2021/11/17 13:05:38;;;;;;;;;;;6.70;99.90;;;;;;5030108;28;19925;-81
2021/11/17 13:08:10;;;;;;;;;;;6.70;99.90;;;;;;5028729;28;19949;-82
2021/11/17 13:10:38;;;;;;;;;;;6.70;99.90;;;;;;5028861;28;19925;-82
2021/11/17 13:13:11;;;;;;;;;;;6.70;99.90;;;;;;5025608;28;19948;-81
2021/11/17 13:15:41;;;;;;;;;;;6.80;99.90;;;;;;5034612;28;19909;-81
2021/11/17 13:18:09;;;;;;;;;;;6.80;99.90;;;;;;5035105;28;19929;-83
2021/11/17 13:20:42;;;;;;;;;;;6.90;99.90;;;;;;5026797;28;19997;-82
2021/11/17 13:23:24;;;;;;;;;;;6.90;99.90;;;;;;5026161;28;19933;-82
2021/11/17 13:25:52;;;;;;;;;;;6.80;99.90;;;;;;5024947;28;19948;-81
2021/11/17 13:28:36;;;;;;;;;;;6.80;99.90;;;;;;5023566;28;19925;-82
2021/11/17 13:31:17;;;;;;;;;;;6.80;99.90;;;;;;5028735;28;19926;-81
2021/11/17 13:33:50;;;;;;;;;;;6.70;99.90;;;;;;5033598;28;19909;-82
2021/11/17 13:36:33;;;;;;;;;;;6.70;99.90;;;;;;5036801;28;19925;-81
2021/11/17 13:39:00;;;;;;;;;;;6.70;99.90;;;;;;5037230;28;19929;-81
2021/11/17 13:41:27;;;;;;;;;;;6.60;99.90;;;;;;5037048;28;19909;-81
2021/11/17 13:43:53;;;;;;;;;;;6.70;99.90;;;;;;5036860;28;19913;-80
2021/11/17 13:46:20;;;;;;;;;;;6.90;99.90;;;;;;5035473;28;19926;-82
2021/11/17 13:48:48;;;;;;;;;;;6.90;99.90;;;;;;5028166;28;19944;-82
2021/11/17 13:51:17;;;;;;;;;;;6.90;99.90;;;;;;5025968;28;19933;-81
2021/11/17 13:53:45;;;;;;;;;;;6.70;99.90;;;;;;5023606;28;19926;-82
2021/11/17 13:56:13;;;;;;;;;;;6.70;99.90;;;;;;5022285;28;19949;-82
2021/11/17 13:58:40;;;;;;;;;;;7.40;99.90;;;;;;5024096;28;19933;-81
2021/11/17 14:01:07;;;;;;;;;;;6.70;99.90;;;;;;5022330;28;19925;-82
2021/11/17 14:03:34;;;;;;;;;;;6.60;99.90;;;;;;5032094;28;19936;-81
2021/11/17 14:06:03;;;;;;;;;;;6.90;99.90;;;;;;5028136;28;19932;-82
2021/11/17 14:08:30;;;;;;;;;;;6.80;99.90;;;;;;5023917;28;19984;-82
2021/11/17 14:10:58;;;;;;;;;;;6.90;99.90;;;;;;5023136;28;19933;-82
2021/11/17 14:13:25;;;;;;;;;;;6.90;99.90;;;;;;5023384;28;19925;-82
2021/11/17 14:15:51;;;;;;;;;;;6.90;99.90;;;;;;5022446;28;19948;-82
2021/11/17 14:18:18;;;;;;;;;;;6.90;99.90;;;;;;5021700;28;19952;-81
2021/11/17 14:20:45;;;;;;;;;;;6.80;99.90;;;;;;5022484;28;19961;-82
2021/11/17 14:23:12;;;;;;;;;;;6.80;99.90;;;;;;5024604;28;20454;-82
2021/11/17 14:25:41;;;;;;;;;;;6.90;99.90;;;;;;5023817;28;19925;-82
2021/11/17 14:28:13;;;;;;;;;;;6.90;99.90;;;;;;5024517;28;19925;-82
2021/11/17 14:30:45;;;;;;;;;;;6.80;99.90;;;;;;5024505;28;19932;-82
2021/11/17 14:33:14;;;;;;;;;;;6.80;99.90;;;;;;5025390;28;19952;-82
2021/11/17 14:35:41;;;;;;;;;;;6.80;99.90;;;;;;5024088;28;19929;-81
2021/11/17 14:38:10;;;;;;;;;;;6.80;99.90;;;;;;5023120;28;19926;-81
2021/11/17 14:40:37;;;;;;;;;;;6.90;99.90;;;;;;5024514;28;19932;-82
2021/11/17 14:43:03;;;;;;;;;;;6.20;99.90;;;;;;5032375;28;19913;-82
2021/11/17 14:45:31;;;;;;;;;;;6.90;99.90;;;;;;5033482;28;19934;-81
2021/11/17 14:47:58;;;;;;;;;;;6.80;99.90;;;;;;5035675;28;19926;-81
2021/11/17 14:50:25;;;;;;;;;;;6.80;99.90;;;;;;5032176;28;20020;-82
2021/11/17 14:52:51;;;;;;;;;;;6.80;99.90;;;;;;5031209;28;19956;-81
2021/11/17 14:55:19;;;;;;;;;;;7.00;99.90;;;;;;5028129;28;19925;-81
2021/11/17 14:57:46;;;;;;;;;;;6.90;99.90;;;;;;5027237;28;19937;-82
2021/11/17 15:00:13;;;;;;;;;;;6.90;99.90;;;;;;5024858;28;19926;-82
2021/11/17 15:02:41;;;;;;;;;;;6.90;99.90;;;;;;5024391;28;19944;-82
2021/11/17 15:05:09;;;;;;;;;;;6.90;99.90;;;;;;5023885;28;19926;-82
2021/11/17 15:07:35;;;;;;;;;;;6.90;99.90;;;;;;5024146;28;19926;-82
2021/11/17 15:10:02;;;;;;;;;;;6.80;99.90;;;;;;5023979;28;19985;-82
2021/11/17 15:12:31;;;;;;;;;;;6.70;99.90;;;;;;5024483;28;19926;-81
2021/11/17 15:14:58;;;;;;;;;;;6.70;99.90;;;;;;5026184;28;20391;-82
2021/11/17 15:17:24;;;;;;;;;;;6.60;99.90;;;;;;5025606;28;19937;-82
2021/11/17 15:19:52;;;;;;;;;;;6.50;99.90;;;;;;5026863;28;19929;-82
2021/11/17 15:22:19;;;;;;;;;;;6.50;99.90;;;;;;5025338;28;19926;-82
2021/11/17 15:24:46;;;;;;;;;;;6.50;99.90;;;;;;5024073;28;19972;-82
2021/11/17 15:27:22;;;;;;;;;;;6.60;99.90;;;;;;5024900;28;19925;-83
2021/11/17 15:29:49;;;;;;;;;;;6.50;99.90;;;;;;5024871;28;19956;-81
2021/11/17 15:32:18;;;;;;;;;;;6.60;99.90;;;;;;5024626;28;19926;-81
2021/11/17 15:34:44;;;;;;;;;;;6.60;99.90;;;;;;5024492;28;19948;-81
2021/11/17 15:37:12;;;;;;;;;;;6.60;99.90;;;;;;5025100;28;19948;-82
2021/11/17 15:39:39;;;;;;;;;;;6.60;99.90;;;;;;5024434;28;19925;-82
2021/11/17 15:42:05;;;;;;;;;;;6.60;99.90;;;;;;5024852;28;19949;-81
2021/11/17 15:44:32;;;;;;;;;;;6.70;99.90;;;;;;5024310;28;19980;-82
2021/11/17 15:47:00;;;;;;;;;;;6.60;99.90;;;;;;5032683;28;19926;-82
2021/11/17 15:49:27;;;;;;;;;;;6.60;99.90;;;;;;5034228;28;19948;-82
2021/11/17 15:51:54;;;;;;;;;;;5.90;99.90;;;;;;5029447;28;19926;-82
2021/11/17 15:54:22;;;;;;;;;;;6.60;99.90;;;;;;5027703;28;19929;-83
2021/11/17 15:56:49;;;;;;;;;;;6.60;99.90;;;;;;5026546;28;20389;-82
2021/11/17 15:59:16;;;;;;;;;;;6.60;99.90;;;;;;5026454;28;19925;-82
2021/11/17 16:01:43;;;;;;;;;;;6.80;99.90;;;;;;5026915;28;19957;-82
2021/11/17 16:04:09;;;;;;;;;;;6.60;99.90;;;;;;5026030;28;20014;-82
2021/11/17 16:06:50;;;;;;;;;;;6.70;99.90;;;;;;5026747;28;19926;-83
2021/11/17 16:09:17;;;;;;;;;;;6.70;99.90;;;;;;5026329;28;19930;-82
2021/11/17 16:11:44;;;;;;;;;;;6.70;99.90;;;;;;5034691;28;19944;-82
2021/11/17 16:14:11;;;;;;;;;;;6.70;99.90;;;;;;5033904;28;19930;-82
2021/11/17 16:16:37;;;;;;;;;;;6.70;99.90;;;;;;5071021;23;19976;-81
2021/11/17 16:19:04;;;;;;;;;;;6.40;99.90;;;;;;5042334;28;19925;-83
2021/11/17 16:21:31;;;;;;;;;;;6.80;99.90;;;;;;5045450;28;19975;-84
2021/11/17 16:26:44;;;;;;;;;;;7.00;99.90;;;;;;5045853;28;19948;-84
2021/11/17 16:29:12;;;;;;;;;;;7.00;99.90;;;;;;5046582;28;20027;-82
2021/11/17 16:31:40;;;;;;;;;;;6.90;99.90;;;;;;5050735;28;19925;-83
2021/11/17 16:34:08;;;;;;;;;;;7.00;99.90;;;;;;5052763;28;19976;-82
2021/11/17 16:36:36;;;;;;;;;;;7.00;99.90;;;;;;5050558;28;19956;-80
2021/11/17 16:39:03;;;;;;;;;;;6.80;99.90;;;;;;5052228;28;19935;-83
2021/11/17 16:41:30;;;;;;;;;;;6.80;99.90;;;;;;5054094;28;19964;-84
2021/11/17 16:43:58;;;;;;;;;;;6.90;99.90;;;;;;5050655;28;20000;-81
2021/11/17 16:46:25;;;;;;;;;;;6.90;99.90;;;;;;5049131;28;19925;-81
2021/11/17 16:48:52;;;;;;;;;;;6.90;99.90;;;;;;5048284;28;19949;-84
2021/11/17 16:51:20;;;;;;;;;;;7.00;99.90;;;;;;5052755;28;19972;-82
2021/11/17 16:53:47;;;;;;;;;;;7.00;99.90;;;;;;5049589;28;20020;-82
2021/11/17 16:56:14;;;;;;;;;;;7.00;99.90;;;;;;5047822;28;19925;-84
2021/11/17 16:58:41;;;;;;;;;;;7.00;99.90;;;;;;5048413;28;19932;-82
2021/11/17 17:01:11;;;;;;;;;;;7.00;99.90;;;;;;5047832;28;19979;-82
2021/11/17 17:03:38;;;;;;;;;;;7.00;99.90;;;;;;5043410;28;20287;-82
2021/11/17 17:06:07;;;;;;;;;;;7.00;99.90;;;;;;5042135;28;19971;-83
2021/11/17 17:08:33;;;;;;;;;;;7.00;99.90;;;;;;5044870;28;19925;-83
2021/11/17 17:11:00;;;;;;;;;;;7.00;99.90;;;;;;5043072;28;19964;-81
2021/11/17 17:13:26;;;;;;;;;;;7.10;99.90;;;;;;5047941;28;19929;-80
2021/11/17 17:15:53;;;;;;;;;;;7.10;99.90;;;;;;5044767;28;19932;-82
2021/11/17 17:18:22;;;;;;;;;;;7.10;99.90;;;;;;5043259;28;19929;-83
2021/11/17 17:20:50;;;;;;;;;;;7.20;99.90;;;;;;5043721;28;19925;-83